Terminal Aerodrome Forecast
Issued by NWS

Home | Current Version | Previous Version | Text Only | Print | Product List | Glossary On
Versions: 1 2 3 4 5 6 7 8 9 10 11 12 13 14 15 16 17 18
000
FTUS43 KIND 062300
TAFBMG
TAF
KBMG 062320Z 0700/0724 21009KT P6SM FEW035
     FM070800 20005KT P6SM SCT050 BKN150
     FM071300 21008KT P6SM VCSH SCT025 BKN050
     FM072300 31005KT P6SM VCSH BKN040=

USA.gov is the U.S. government's official web portal to all federal, state and local government web resources and services.